createdAt,value
2022-11-23T00:01:55.692Z,99086.75
2022-11-23T00:04:24.969Z,99080.47
2022-11-23T00:06:52.988Z,99081.22
2022-11-23T00:09:20.945Z,99075.81
2022-11-23T00:11:48.873Z,99069.78
2022-11-23T00:14:18.110Z,99078.03
2022-11-23T00:16:46.005Z,99066.16
2022-11-23T00:19:13.909Z,99063.28
2022-11-23T00:21:41.754Z,99049.06
2022-11-23T00:24:12.528Z,99046.28
2022-11-23T00:26:40.446Z,99037.25
2022-11-23T00:29:08.358Z,99033.53
2022-11-23T00:31:37.646Z,99027.78
2022-11-23T00:34:05.668Z,99011.63
2022-11-23T00:36:33.504Z,99009.47
2022-11-23T00:39:01.397Z,98985.25
2022-11-23T00:41:29.336Z,98975.38
2022-11-23T00:43:57.239Z,98959.94
2022-11-23T00:46:25.673Z,98950.28
2022-11-23T00:48:55.932Z,98941.31
2022-11-23T00:51:24.504Z,98932.41
2022-11-23T00:53:52.549Z,98917.31
2022-11-23T00:56:21.494Z,98919.13
2022-11-23T00:58:50.388Z,98908.38
2022-11-23T01:01:18.793Z,98898.72
2022-11-23T01:03:47.817Z,98894.34
2022-11-23T01:06:18.264Z,98891.81
2022-11-23T01:08:49.849Z,98884.56
2022-11-23T01:11:17.698Z,98875.88
2022-11-23T01:13:45.565Z,98880.22
2022-11-23T01:16:19.505Z,98868.50
2022-11-23T01:18:53.706Z,98855.09
2022-11-23T01:21:22.969Z,98846.41
2022-11-23T01:23:50.898Z,98842.56
2022-11-23T01:26:18.816Z,98830.22
2022-11-23T01:28:46.749Z,98828.31
2022-11-23T01:31:15.646Z,98823.72
2022-11-23T01:33:43.604Z,98822.44
2022-11-23T01:36:12.712Z,98808.06
2022-11-23T01:38:42.075Z,98799.84
2022-11-23T01:41:10.431Z,98781.22
2022-11-23T01:43:38.306Z,98772.41
2022-11-23T01:46:06.479Z,98767.22
2022-11-23T01:48:36.725Z,98749.69
2022-11-23T01:51:06.123Z,98747.75
2022-11-23T01:53:34.046Z,98738.09
2022-11-23T01:56:03.862Z,98732.06
2022-11-23T01:58:33.144Z,98716.72
2022-11-23T02:01:01.121Z,98712.03
2022-11-23T02:03:29.160Z,98713.94
2022-11-23T02:06:01.386Z,98698.75
2022-11-23T02:08:29.652Z,98685.81
2022-11-23T02:10:57.697Z,98688.47
2022-11-23T02:13:27.067Z,98676.50
2022-11-23T02:15:55.101Z,98664.69
2022-11-23T02:18:24.348Z,98659.72
2022-11-23T02:20:52.268Z,98660.00
2022-11-23T02:23:27.820Z,98642.56
2022-11-23T02:25:59.623Z,98652.81
2022-11-23T02:28:29.333Z,98645.31
2022-11-23T02:30:57.191Z,98624.69
2022-11-23T02:33:25.509Z,98636.84
2022-11-23T02:35:54.840Z,98625.84
2022-11-23T02:38:23.092Z,98614.97
2022-11-23T02:40:50.978Z,98613.00
2022-11-23T02:43:20.224Z,98599.34
2022-11-23T02:45:50.770Z,98604.28
2022-11-23T02:48:18.688Z,98595.06
2022-11-23T02:50:46.564Z,98589.38
2022-11-23T02:53:14.676Z,98582.00
2022-11-23T02:55:42.549Z,98576.28
2022-11-23T02:58:10.478Z,98578.69
2022-11-23T03:00:39.768Z,98575.78
2022-11-23T03:03:07.741Z,98570.31
2022-11-23T03:05:35.679Z,98558.81
2022-11-23T03:08:03.550Z,98555.06
2022-11-23T03:10:31.415Z,98551.44
2022-11-23T03:12:59.519Z,98537.13
2022-11-23T03:15:28.539Z,98533.66
2022-11-23T03:17:58.161Z,98534.47
2022-11-23T03:20:26.059Z,98530.28
2022-11-23T03:22:53.908Z,98524.22
2022-11-23T03:25:21.772Z,98530.66
2022-11-23T03:27:50.011Z,98521.22
2022-11-23T03:30:17.964Z,98521.34
2022-11-23T03:32:45.936Z,98511.94
2022-11-23T03:35:15.275Z,98506.88
2022-11-23T03:37:43.602Z,98501.94
2022-11-23T03:40:12.285Z,98495.78
2022-11-23T03:42:40.914Z,98497.59
2022-11-23T03:45:10.476Z,98482.72
2022-11-23T03:47:38.439Z,98478.34
2022-11-23T03:50:07.247Z,98466.91
2022-11-23T03:52:36.537Z,98465.06
2022-11-23T03:55:04.736Z,98458.78
2022-11-23T03:57:32.619Z,98454.88
2022-11-23T04:00:00.472Z,98440.47
2022-11-23T04:02:28.336Z,98440.22
2022-11-23T04:04:56.205Z,98423.09
2022-11-23T04:07:24.173Z,98447.53
2022-11-23T04:09:53.483Z,98447.41
2022-11-23T04:12:21.357Z,98434.56
2022-11-23T04:14:49.292Z,98447.47
2022-11-23T04:17:17.283Z,98445.25
2022-11-23T04:19:45.221Z,98418.81
2022-11-23T04:22:13.093Z,98394.75
2022-11-23T04:24:40.948Z,98383.09
2022-11-23T04:27:11.415Z,98378.06
2022-11-23T04:29:39.283Z,98364.34
2022-11-23T04:32:07.306Z,98369.28
2022-11-23T04:34:35.218Z,98366.47
2022-11-23T04:37:03.147Z,98366.22
2022-11-23T04:39:31.207Z,98349.25
2022-11-23T04:41:59.279Z,98335.44
2022-11-23T04:44:28.523Z,98341.75
2022-11-23T04:46:56.392Z,98333.38
2022-11-23T04:49:24.293Z,98329.31
2022-11-23T04:51:52.131Z,98335.78
2022-11-23T04:54:20.051Z,98324.00
2022-11-23T04:56:47.941Z,98343.94
2022-11-23T04:59:15.991Z,98324.56
2022-11-23T05:01:45.198Z,98349.66
2022-11-23T05:04:17.638Z,98360.63
2022-11-23T05:06:45.863Z,98353.88
2022-11-23T05:09:13.729Z,98351.19
2022-11-23T05:11:41.699Z,98351.91
2022-11-23T05:14:09.564Z,98373.53
2022-11-23T05:16:37.462Z,98373.53
2022-11-23T05:19:06.734Z,98382.34
2022-11-23T05:21:34.676Z,98371.69
2022-11-23T05:24:02.632Z,98400.31
2022-11-23T05:26:30.478Z,98388.53
2022-11-23T05:28:58.375Z,98402.03
2022-11-23T05:31:26.232Z,98402.72
2022-11-23T05:33:54.120Z,98412.69
2022-11-23T05:36:23.337Z,98427.69
2022-11-23T05:38:51.608Z,98424.59
2022-11-23T05:41:19.477Z,98419.84
2022-11-23T05:43:47.359Z,98431.50
2022-11-23T05:46:15.286Z,98454.66
2022-11-23T05:48:43.361Z,98431.06
2022-11-23T05:51:11.317Z,98461.19
2022-11-23T05:53:40.617Z,98463.44
2022-11-23T05:56:08.770Z,98475.94
2022-11-23T05:58:36.670Z,98479.44
2022-11-23T06:01:04.537Z,98470.34
2022-11-23T06:03:32.524Z,98484.06
2022-11-23T06:06:00.503Z,98490.69
2022-11-23T06:08:28.612Z,98491.16
2022-11-23T06:10:57.938Z,98490.84
2022-11-23T06:13:26.005Z,98494.09
2022-11-23T06:15:53.871Z,98499.84
2022-11-23T06:18:21.739Z,98498.63
2022-11-23T06:20:49.568Z,98512.13
2022-11-23T06:23:17.489Z,98530.63
2022-11-23T06:25:45.354Z,98548.38
2022-11-23T06:28:14.646Z,98563.22
2022-11-23T06:30:42.580Z,98582.50
2022-11-23T06:33:10.581Z,98590.72
2022-11-23T06:35:38.576Z,98585.00
2022-11-23T06:38:06.446Z,98596.41
2022-11-23T06:40:34.388Z,98593.13
2022-11-23T06:43:02.357Z,98586.25
2022-11-23T06:45:31.656Z,98598.72
2022-11-23T06:47:59.597Z,98595.06
2022-11-23T06:50:27.482Z,98592.03
2022-11-23T06:52:56.766Z,98602.31
2022-11-23T06:55:24.652Z,98601.06
2022-11-23T06:57:52.625Z,98596.22
2022-11-23T07:00:20.764Z,98602.25
2022-11-23T07:02:53.737Z,98614.34
2022-11-23T07:05:21.708Z,98618.69
2022-11-23T07:07:49.743Z,98620.97
2022-11-23T07:10:18.344Z,98636.72
2022-11-23T07:12:46.263Z,98633.06
2022-11-23T07:15:15.008Z,98637.06
2022-11-23T07:17:44.148Z,98635.69
2022-11-23T07:20:14.178Z,98650.03
2022-11-23T07:22:42.475Z,98656.56
2022-11-23T07:25:11.553Z,98646.56
2022-11-23T07:27:39.449Z,98666.63
2022-11-23T07:30:08.720Z,98671.56
2022-11-23T07:32:36.749Z,98671.88
2022-11-23T07:35:05.023Z,98681.16
2022-11-23T07:37:34.302Z,98693.41
2022-11-23T07:40:03.338Z,98692.28
2022-11-23T07:42:34.655Z,98703.16
2022-11-23T07:45:03.896Z,98697.56
2022-11-23T07:47:31.881Z,98712.59
2022-11-23T07:49:59.761Z,98717.50
2022-11-23T07:52:27.728Z,98719.69
2022-11-23T07:54:57.080Z,98722.34
2022-11-23T07:57:24.958Z,98720.00
2022-11-23T07:59:52.837Z,98720.72
2022-11-23T08:02:21.234Z,98716.09
2022-11-23T08:04:49.158Z,98736.06
2022-11-23T08:07:17.042Z,98743.66
2022-11-23T08:09:45.011Z,98748.59
2022-11-23T08:12:14.339Z,98760.84
2022-11-23T08:14:42.254Z,98763.09
2022-11-23T08:17:10.559Z,98761.44
2022-11-23T08:19:38.552Z,98767.81
2022-11-23T08:22:06.515Z,98769.47
2022-11-23T08:24:34.974Z,98778.78
2022-11-23T08:27:03.009Z,98793.81
2022-11-23T08:29:32.361Z,98792.84
2022-11-23T08:32:00.316Z,98781.53
2022-11-23T08:34:28.302Z,98790.94
2022-11-23T08:36:56.223Z,98785.81
2022-11-23T08:39:24.176Z,98795.94
2022-11-23T08:41:52.087Z,98797.66
2022-11-23T08:44:20.058Z,98793.19
2022-11-23T08:46:49.314Z,98796.31
2022-11-23T08:49:20.169Z,98797.81
2022-11-23T08:51:50.289Z,98791.53
2022-11-23T08:54:18.448Z,98815.16
2022-11-23T08:56:46.504Z,98803.22
2022-11-23T08:59:14.461Z,98810.13
2022-11-23T09:01:42.412Z,98817.13
2022-11-23T09:04:16.393Z,98832.06
2022-11-23T09:06:47.093Z,98829.38
2022-11-23T09:09:15.101Z,98838.38
2022-11-23T09:11:43.046Z,98845.53
2022-11-23T09:14:10.941Z,98839.63
2022-11-23T09:16:38.937Z,98854.81
2022-11-23T09:19:07.270Z,98853.81
2022-11-23T09:21:39.195Z,98852.13
2022-11-23T09:24:07.629Z,98859.84
2022-11-23T09:26:37.599Z,98880.97
2022-11-23T09:29:05.608Z,98874.66
2022-11-23T09:31:33.482Z,98863.00
2022-11-23T09:34:01.379Z,98870.03
2022-11-23T09:36:29.291Z,98884.50
2022-11-23T09:38:58.552Z,98888.81
2022-11-23T09:41:46.592Z,98899.03
2022-11-23T09:44:16.873Z,98897.47
2022-11-23T09:46:50.381Z,98904.75
2022-11-23T09:49:19.008Z,98893.38
2022-11-23T09:51:48.030Z,98882.69
2022-11-23T09:54:23.843Z,98891.25
2022-11-23T09:56:54.834Z,98884.19
2022-11-23T09:59:36.474Z,98875.41
2022-11-23T10:02:04.509Z,98878.84
2022-11-23T10:04:35.532Z,98896.47
2022-11-23T10:07:12.160Z,98880.16
2022-11-23T10:09:45.157Z,98893.91
2022-11-23T10:12:29.264Z,98892.72
2022-11-23T10:15:11.153Z,98889.91
2022-11-23T10:17:51.165Z,98905.59
2022-11-23T10:20:26.561Z,98922.06
2022-11-23T10:22:58.543Z,98929.38
2022-11-23T10:25:29.001Z,98924.22
2022-11-23T10:27:59.784Z,98940.75
2022-11-23T10:30:27.687Z,98927.28
2022-11-23T10:32:58.072Z,98932.06
2022-11-23T10:35:28.758Z,98932.66
2022-11-23T10:38:02.918Z,98925.31
2022-11-23T10:40:32.209Z,98931.50
2022-11-23T10:43:01.732Z,98930.91
2022-11-23T10:45:29.954Z,98935.34
2022-11-23T10:47:58.944Z,98945.50
2022-11-23T10:50:30.085Z,98923.59
2022-11-23T10:52:58.881Z,98948.13
2022-11-23T10:55:29.487Z,98950.91
2022-11-23T10:57:58.835Z,98928.56
2022-11-23T11:00:30.796Z,98949.00
2022-11-23T11:02:59.584Z,98946.59
2022-11-23T11:08:18.321Z,98950.03
2022-11-23T11:10:50.058Z,98948.47
2022-11-23T11:13:27.092Z,98963.00
2022-11-23T11:15:56.398Z,98988.50
2022-11-23T11:18:27.045Z,98971.97
2022-11-23T11:20:58.773Z,98968.59
2022-11-23T11:23:26.873Z,98959.81
2022-11-23T11:26:04.740Z,98957.50
2022-11-23T11:28:36.319Z,98955.59
2022-11-23T11:31:10.770Z,98968.25
2022-11-23T11:33:41.217Z,98961.72
2022-11-23T11:36:09.052Z,98946.31
2022-11-23T11:38:37.913Z,98949.56
2022-11-23T11:41:07.766Z,98940.88
2022-11-23T11:43:40.211Z,98945.66
2022-11-23T11:46:28.563Z,98942.00
2022-11-23T11:48:58.275Z,98973.50
2022-11-23T11:51:28.901Z,98972.25
2022-11-23T11:53:58.792Z,98957.00
2022-11-23T11:56:30.416Z,98955.44
2022-11-23T11:59:02.672Z,98969.06
2022-11-23T12:01:39.249Z,98982.19
2022-11-23T12:04:08.332Z,99003.16
2022-11-23T12:06:38.948Z,98986.00
2022-11-23T12:09:11.139Z,98996.34
2022-11-23T12:11:39.087Z,98991.84
2022-11-23T12:14:13.011Z,98993.56
2022-11-23T12:16:44.848Z,99011.59
2022-11-23T12:19:16.628Z,99014.03
2022-11-23T12:22:15.858Z,98999.97
2022-11-23T12:24:55.216Z,99003.16
2022-11-23T12:27:26.854Z,99022.31
2022-11-23T12:30:03.234Z,99024.09
2022-11-23T12:32:35.415Z,99022.06
2022-11-23T12:35:14.677Z,99019.81
2022-11-23T12:37:49.199Z,99016.00
2022-11-23T12:40:40.434Z,99030.09
2022-11-23T12:43:13.172Z,99027.06
2022-11-23T12:45:48.437Z,99026.56
2022-11-23T12:48:30.034Z,99017.97
2022-11-23T12:51:01.535Z,99023.94
2022-11-23T12:53:34.990Z,99024.00
2022-11-23T12:56:07.539Z,99032.38
2022-11-23T12:58:35.788Z,99032.72
2022-11-23T13:01:07.428Z,99028.44
2022-11-23T13:04:12.035Z,99043.75
2022-11-23T13:07:38.299Z,99042.13
2022-11-23T13:10:24.220Z,99048.84
2022-11-23T13:13:06.984Z,99049.09
2022-11-23T13:15:45.890Z,99054.56
2022-11-23T13:18:18.039Z,99055.72
2022-11-23T13:21:10.022Z,99055.53
2022-11-23T13:23:38.135Z,99051.59
2022-11-23T13:26:18.873Z,99052.94
2022-11-23T13:28:46.944Z,99067.75
2022-11-23T13:31:25.856Z,99055.94
2022-11-23T13:33:56.536Z,99063.47
2022-11-23T13:37:15.296Z,99075.75
2022-11-23T13:40:03.664Z,99071.91
2022-11-23T13:42:33.299Z,99074.66
2022-11-23T13:45:28.457Z,99070.72
2022-11-23T13:48:41.232Z,99072.63
2022-11-23T13:51:04.432Z,99069.84
2022-11-23T13:53:33.778Z,99096.06
2022-11-23T13:56:17.729Z,99077.53
2022-11-23T13:58:51.941Z,99090.31
2022-11-23T14:01:52.981Z,99095.22
2022-11-23T14:04:21.401Z,99091.09
2022-11-23T14:06:52.524Z,99090.31
2022-11-23T14:09:23.484Z,99078.22
2022-11-23T14:11:59.788Z,99091.53
2022-11-23T14:14:29.776Z,99103.34
2022-11-23T14:17:17.163Z,99091.78
2022-11-23T14:19:50.438Z,99090.06
2022-11-23T14:22:23.348Z,99108.69
2022-11-23T14:25:14.518Z,99108.03
2022-11-23T14:27:48.426Z,99106.25
2022-11-23T14:30:42.198Z,99111.75
2022-11-23T14:33:17.759Z,99105.22
2022-11-23T14:35:49.235Z,99116.25
2022-11-23T14:38:35.640Z,99107.50
2022-11-23T14:41:07.614Z,99104.38
2022-11-23T14:43:35.671Z,99103.84
2022-11-23T14:46:04.268Z,99107.22
2022-11-23T14:48:32.851Z,99106.38
2022-11-23T14:51:01.644Z,99085.94
2022-11-23T14:53:34.016Z,99096.63
2022-11-23T14:56:02.079Z,99116.38
2022-11-23T14:58:31.795Z,99145.25
2022-11-23T15:01:00.469Z,99125.72
2022-11-23T15:06:18.110Z,99141.84
2022-11-23T15:08:49.569Z,99155.78
2022-11-23T15:11:21.136Z,99157.78
2022-11-23T15:13:50.496Z,99168.81
2022-11-23T15:16:20.350Z,99164.06
2022-11-23T15:18:48.522Z,99168.81
2022-11-23T15:21:26.556Z,99184.19
2022-11-23T15:23:58.058Z,99183.31
2022-11-23T15:26:46.798Z,99156.72
2022-11-23T15:29:30.219Z,99181.34
2022-11-23T15:34:46.292Z,99180.25
2022-11-23T15:37:14.404Z,99181.63
2022-11-23T15:39:44.217Z,99181.16
2022-11-23T15:42:12.225Z,99197.34
2022-11-23T15:44:40.094Z,99188.41
2022-11-23T15:47:08.099Z,99191.50
2022-11-23T15:49:38.259Z,99199.97
2022-11-23T15:52:06.224Z,99202.16
2022-11-23T15:54:35.885Z,99208.75
2022-11-23T15:57:07.827Z,99218.44
2022-11-23T15:59:39.240Z,99217.34
2022-11-23T16:02:07.525Z,99222.44
2022-11-23T16:04:37.911Z,99229.09
2022-11-23T16:07:16.560Z,99234.03
2022-11-23T16:09:52.400Z,99222.53
2022-11-23T16:12:25.643Z,99203.44
2022-11-23T16:14:53.881Z,99229.31
2022-11-23T16:17:23.666Z,99236.72
2022-11-23T16:19:52.203Z,99228.84
2022-11-23T16:22:25.882Z,99233.31
2022-11-23T16:24:55.803Z,99237.72
2022-11-23T16:27:25.868Z,99217.03
2022-11-23T16:29:56.539Z,99239.72
2022-11-23T16:32:28.906Z,99235.25
2022-11-23T16:34:57.001Z,99234.75
2022-11-23T16:37:26.363Z,99254.47
2022-11-23T16:39:54.259Z,99251.66
2022-11-23T16:42:22.135Z,99263.78
2022-11-23T16:44:51.537Z,99267.84
2022-11-23T16:47:24.310Z,99277.38
2022-11-23T16:49:52.415Z,99266.00
2022-11-23T16:52:20.281Z,99271.38
2022-11-23T16:54:48.250Z,99261.28
2022-11-23T16:57:19.539Z,99260.94
2022-11-23T16:59:47.447Z,99266.75
2022-11-23T17:02:16.962Z,99273.91
2022-11-23T17:04:45.511Z,99289.44
2022-11-23T17:07:13.488Z,99281.44
2022-11-23T17:09:41.405Z,99277.81
2022-11-23T17:12:12.092Z,99261.19
2022-11-23T17:14:40.677Z,99270.66
2022-11-23T17:17:11.826Z,99276.72
2022-11-23T17:19:41.177Z,99279.38
2022-11-23T17:22:09.043Z,99290.78
2022-11-23T17:24:36.926Z,99286.19
2022-11-23T17:27:04.770Z,99308.50
2022-11-23T17:29:35.570Z,99296.84
2022-11-23T17:32:06.628Z,99306.81
2022-11-23T17:34:34.598Z,99307.69
2022-11-23T17:37:03.798Z,99302.44
2022-11-23T17:39:31.956Z,99296.25
2022-11-23T17:42:04.606Z,99304.50
2022-11-23T17:44:33.168Z,99326.97
2022-11-23T17:47:02.525Z,99324.16
2022-11-23T17:49:31.160Z,99336.69
2022-11-23T17:51:59.372Z,99318.81
2022-11-23T17:54:28.748Z,99334.13
2022-11-23T17:56:57.746Z,99315.06
2022-11-23T17:59:25.658Z,99333.03
2022-11-23T18:01:53.624Z,99332.06
2022-11-23T18:04:22.087Z,99331.09
2022-11-23T18:06:50.041Z,99343.97
2022-11-23T18:09:18.277Z,99319.06
2022-11-23T18:11:47.603Z,99344.34
2022-11-23T18:14:15.577Z,99349.69
2022-11-23T18:16:43.555Z,99346.28
2022-11-23T18:19:11.755Z,99345.53
2022-11-23T18:21:39.753Z,99354.28
2022-11-23T18:24:08.909Z,99348.81
2022-11-23T18:26:36.930Z,99355.84
2022-11-23T18:29:06.478Z,99336.19
2022-11-23T18:31:34.553Z,99363.84
2022-11-23T18:34:02.956Z,99355.00
2022-11-23T18:36:30.888Z,99361.44
2022-11-23T18:38:59.249Z,99370.41
2022-11-23T18:41:27.222Z,99375.75
2022-11-23T18:43:55.167Z,99389.97
2022-11-23T18:46:24.593Z,99375.75
2022-11-23T18:48:53.517Z,99375.53
2022-11-23T18:51:21.463Z,99382.53
2022-11-23T18:53:50.966Z,99383.41
2022-11-23T18:56:19.348Z,99383.03
2022-11-23T18:58:47.748Z,99369.09
2022-11-23T19:01:17.764Z,99376.13
2022-11-23T19:03:47.768Z,99378.91
2022-11-23T19:06:16.270Z,99388.63
2022-11-23T19:08:44.969Z,99393.34
2022-11-23T19:11:17.521Z,99427.94
2022-11-23T19:13:45.969Z,99430.34
2022-11-23T19:16:14.567Z,99439.06
2022-11-23T19:18:42.531Z,99419.25
2022-11-23T19:21:15.811Z,99416.94
2022-11-23T19:23:43.932Z,99422.38
2022-11-23T19:26:11.882Z,99390.88
2022-11-23T19:28:44.563Z,99426.63
2022-11-23T19:31:13.764Z,99417.25
2022-11-23T19:33:41.910Z,99421.59
2022-11-23T19:36:10.934Z,99422.59
2022-11-23T19:38:40.200Z,99436.94
2022-11-23T19:41:08.157Z,99445.88
2022-11-23T19:43:36.071Z,99438.06
2022-11-23T19:46:05.327Z,99444.53
2022-11-23T19:48:33.938Z,99455.34
2022-11-23T19:51:02.472Z,99427.78
2022-11-23T19:53:31.294Z,99468.53
2022-11-23T19:56:03.864Z,99471.47
2022-11-23T19:58:34.405Z,99479.13
2022-11-23T20:01:02.471Z,99460.03
2022-11-23T20:03:30.612Z,99469.38
2022-11-23T20:05:59.388Z,99457.41
2022-11-23T20:08:28.076Z,99458.88
2022-11-23T20:10:56.181Z,99454.06
2022-11-23T20:13:25.625Z,99480.63
2022-11-23T20:15:53.634Z,99474.13
2022-11-23T20:18:25.582Z,99468.13
2022-11-23T20:20:56.369Z,99480.97
2022-11-23T20:23:24.305Z,99492.56
2022-11-23T20:25:52.170Z,99496.72
2022-11-23T20:28:20.100Z,99495.47
2022-11-23T20:30:50.879Z,99523.06
2022-11-23T20:33:19.517Z,99524.09
2022-11-23T20:35:47.826Z,99507.25
2022-11-23T20:38:17.422Z,99525.31
2022-11-23T20:40:45.344Z,99548.53
2022-11-23T20:43:13.498Z,99545.44
2022-11-23T20:45:41.529Z,99536.91
2022-11-23T20:48:10.841Z,99561.25
2022-11-23T20:50:39.179Z,99559.56
2022-11-23T20:53:07.095Z,99588.56
2022-11-23T20:55:35.011Z,99629.66
2022-11-23T20:58:02.852Z,99604.47
2022-11-23T21:00:30.930Z,99634.09
2022-11-23T21:02:59.045Z,99620.06
2022-11-23T21:05:28.507Z,99621.78
2022-11-23T21:07:56.626Z,99589.69
2022-11-23T21:10:42.277Z,99614.84
2022-11-23T21:13:49.332Z,99615.13
2022-11-23T21:16:18.287Z,99598.41
2022-11-23T21:18:46.271Z,99607.06
2022-11-23T21:21:15.543Z,99634.19
2022-11-23T21:23:46.044Z,99620.53
2022-11-23T21:26:16.150Z,99632.59
2022-11-23T21:28:44.446Z,99634.88
2022-11-23T21:31:15.141Z,99619.31
2022-11-23T21:33:43.333Z,99635.16
2022-11-23T21:36:11.933Z,99634.31
2022-11-23T21:38:41.267Z,99637.03
2022-11-23T21:41:10.760Z,99637.09
2022-11-23T21:43:39.088Z,99642.38
2022-11-23T21:46:08.165Z,99661.63
2022-11-23T21:48:36.336Z,99659.78
2022-11-23T21:51:04.923Z,99665.91
2022-11-23T21:53:32.954Z,99680.31
2022-11-23T21:56:06.651Z,99688.34
2022-11-23T21:58:34.721Z,99693.13
2022-11-23T22:01:06.274Z,99694.56
2022-11-23T22:03:37.500Z,99690.75
2022-11-23T22:06:05.490Z,99717.75
2022-11-23T22:08:33.593Z,99694.16
2022-11-23T22:11:01.640Z,99722.34
2022-11-23T22:13:36.612Z,99722.66
2022-11-23T22:16:12.681Z,99728.44
2022-11-23T22:18:40.719Z,99730.03
2022-11-23T22:21:09.427Z,99728.25
2022-11-23T22:23:37.679Z,99740.59
2022-11-23T22:26:06.102Z,99745.19
2022-11-23T22:28:35.499Z,99740.59
2022-11-23T22:31:03.925Z,99736.97
2022-11-23T22:33:32.054Z,99768.56
2022-11-23T22:36:01.439Z,99767.50
2022-11-23T22:38:29.780Z,99763.56
2022-11-23T22:40:57.705Z,99776.34
2022-11-23T22:43:25.679Z,99780.75
2022-11-23T22:45:55.028Z,99777.34
2022-11-23T22:48:23.018Z,99794.09
2022-11-23T22:50:57.379Z,99778.94
2022-11-23T22:53:25.378Z,99796.31
2022-11-23T22:55:53.523Z,99794.28
2022-11-23T22:58:21.516Z,99800.06
2022-11-23T23:00:49.535Z,99803.38
2022-11-23T23:03:19.112Z,99804.66
2022-11-23T23:05:54.854Z,99812.56
2022-11-23T23:08:23.246Z,99825.78
2022-11-23T23:10:51.187Z,99816.59
2022-11-23T23:13:19.273Z,99810.28
2022-11-23T23:15:47.307Z,99832.53
2022-11-23T23:18:15.769Z,99826.75
2022-11-23T23:20:45.223Z,99829.63
2022-11-23T23:23:13.858Z,99841.13
2022-11-23T23:25:41.956Z,99836.38
2022-11-23T23:28:10.246Z,99846.81
2022-11-23T23:30:38.179Z,99845.66
2022-11-23T23:33:06.119Z,99856.78
2022-11-23T23:35:34.084Z,99852.94
2022-11-23T23:38:03.371Z,99846.44
2022-11-23T23:40:31.340Z,99866.91
2022-11-23T23:42:59.248Z,99866.28
2022-11-23T23:45:27.205Z,99874.38
2022-11-23T23:47:55.173Z,99877.03
2022-11-23T23:50:23.159Z,99888.00
2022-11-23T23:52:51.120Z,99897.91
2022-11-23T23:55:20.459Z,99903.47
2022-11-23T23:57:48.493Z,99910.50
